Time;durP1;ratioP1;P1;durP2;ratioP2;P2;SDS_P1;SDS_P2;PMS_P1;PMS_P2;Temp;Humidity;BMP_temperature;BMP_pressure;BME280_temperature;BME280_humidity;BME280_pressure;Samples;Min_cycle;Max_cycle;Signal;HPM_P1;HPM_P2
2022/01/24 00:01:46;;;;;;;14.47;6.97;;;;;;;;;;4972779;28;20502;-69
2022/01/24 00:04:12;;;;;;;18.23;7.87;;;;;;;;;;4965481;28;20463;-69
2022/01/24 00:06:40;;;;;;;20.20;7.87;;;;;;;;;;4977461;28;20461;-70
2022/01/24 00:09:07;;;;;;;15.23;6.17;;;;;;;;;;4966486;28;20523;-70
2022/01/24 00:27:54;;;;;;;15.80;7.10;;;;;;;;;;4974653;28;20543;-70
2022/01/24 00:30:20;;;;;;;18.07;7.90;;;;;;;;;;4951809;28;20534;-70
2022/01/24 00:32:47;;;;;;;15.07;6.57;;;;;;;;;;4974711;28;20459;-69
2022/01/24 00:35:14;;;;;;;20.87;8.67;;;;;;;;;;4973862;28;20773;-70
2022/01/24 00:37:40;;;;;;;16.67;7.67;;;;;;;;;;4958763;28;20961;-70
2022/01/24 00:40:07;;;;;;;18.97;8.03;;;;;;;;;;4949310;28;20233;-70
2022/01/24 00:42:56;;;;;;;17.30;7.47;;;;;;;;;;4956056;28;20964;-69
2022/01/24 00:55:38;;;;;;;14.87;6.97;;;;;;;;;;4956899;28;20459;-69
2022/01/24 00:58:04;;;;;;;7.50;3.70;;;;;;;;;;4950290;28;20456;-70
2022/01/24 01:00:31;;;;;;;18.97;7.97;;;;;;;;;;4971470;28;20605;-70
2022/01/24 01:02:58;;;;;;;20.67;8.03;;;;;;;;;;4974427;28;21327;-70
2022/01/24 01:54:19;;;;;;;23.03;9.03;;;;;;;;;;4981652;28;20458;-70
2022/01/24 01:56:45;;;;;;;22.00;10.70;;;;;;;;;;4968423;28;20450;-70
2022/01/24 01:59:12;;;;;;;20.83;9.10;;;;;;;;;;4979398;28;20540;-70
2022/01/24 02:01:38;;;;;;;21.43;8.70;;;;;;;;;;4982067;28;20513;-70
2022/01/24 02:04:05;;;;;;;19.73;8.90;;;;;;;;;;4981948;28;20862;-70
2022/01/24 02:06:32;;;;;;;19.50;8.40;;;;;;;;;;4982973;28;20459;-70
2022/01/24 02:09:03;;;;;;;20.50;9.37;;;;;;;;;;4981955;28;20575;-70
2022/01/24 02:11:29;;;;;;;18.77;7.27;;;;;;;;;;4976244;28;20466;-69
2022/01/24 02:13:59;;;;;;;24.03;9.30;;;;;;;;;;4976369;28;20964;-69
2022/01/24 02:16:52;;;;;;;21.63;9.70;;;;;;;;;;4977219;28;20482;-70
2022/01/24 02:22:39;;;;;;;16.93;6.47;;;;;;;;;;4956669;28;20474;-70
2022/01/24 02:25:05;;;;;;;26.90;11.13;;;;;;;;;;4977705;28;20463;-70
2022/01/24 02:27:42;;;;;;;24.50;9.67;;;;;;;;;;4978464;28;20462;-69
2022/01/24 02:30:37;;;;;;;28.17;9.63;;;;;;;;;;4971586;28;21377;-70
2022/01/24 02:32:59;;;;;;;24.93;8.87;;;;;;;;;;4977709;28;20454;-70
2022/01/24 02:35:25;;;;;;;24.37;10.17;;;;;;;;;;4975494;28;20594;-70
2022/01/24 02:37:53;;;;;;;22.97;8.77;;;;;;;;;;4961461;28;20469;-70
2022/01/24 02:40:20;;;;;;;22.23;8.60;;;;;;;;;;4978138;28;20499;-70
2022/01/24 02:48:24;;;;;;;17.83;7.47;;;;;;;;;;4975518;28;21332;-70
2022/01/24 02:53:26;;;;;;;21.33;7.70;;;;;;;;;;4974499;28;22470;-70
2022/01/24 02:55:52;;;;;;;21.30;9.73;;;;;;;;;;4977677;28;20475;-70
2022/01/24 02:58:19;;;;;;;22.20;8.90;;;;;;;;;;4976093;28;20445;-70
2022/01/24 03:00:46;;;;;;;20.27;8.40;;;;;;;;;;4958610;28;31528;-69
2022/01/24 03:03:13;;;;;;;18.77;8.73;;;;;;;;;;4980512;28;20463;-70
2022/01/24 03:05:40;;;;;;;19.70;8.87;;;;;;;;;;4974995;28;20489;-70
2022/01/24 03:08:07;;;;;;;17.00;7.70;;;;;;;;;;4969923;28;20930;-69
2022/01/24 03:10:40;;;;;;;21.07;9.17;;;;;;;;;;4975459;28;20538;-69
2022/01/24 03:13:18;;;;;;;23.33;8.27;;;;;;;;;;4979240;28;20525;-69
2022/01/24 03:15:49;;;;;;;15.77;7.77;;;;;;;;;;4959196;28;20455;-69
2022/01/24 03:18:16;;;;;;;18.53;8.23;;;;;;;;;;4971421;28;20843;-70
2022/01/24 03:20:43;;;;;;;19.77;8.37;;;;;;;;;;4978434;28;20459;-69
2022/01/24 03:23:11;;;;;;;18.40;7.70;;;;;;;;;;4976632;28;20911;-70
2022/01/24 03:25:37;;;;;;;15.07;7.13;;;;;;;;;;4978027;28;22253;-69
2022/01/24 03:28:04;;;;;;;16.40;7.30;;;;;;;;;;4970408;28;20456;-69
2022/01/24 03:30:31;;;;;;;15.10;6.73;;;;;;;;;;4972223;28;20475;-69
2022/01/24 03:32:58;;;;;;;12.73;6.53;;;;;;;;;;4975584;28;20459;-69
2022/01/24 03:35:25;;;;;;;15.40;6.57;;;;;;;;;;4968740;28;20462;-69
2022/01/24 03:37:52;;;;;;;12.60;6.50;;;;;;;;;;4970960;28;20482;-69
2022/01/24 03:40:18;;;;;;;13.07;6.03;;;;;;;;;;4976471;28;20465;-69
2022/01/24 03:42:45;;;;;;;16.10;7.00;;;;;;;;;;4973223;28;20947;-69
2022/01/24 03:45:12;;;;;;;16.77;7.80;;;;;;;;;;4966664;28;20504;-68
2022/01/24 03:50:06;;;;;;;15.87;7.93;;;;;;;;;;4964584;28;20905;-71
2022/01/24 03:52:33;;;;;;;17.57;8.43;;;;;;;;;;4963842;28;20950;-68
2022/01/24 03:54:59;;;;;;;13.30;7.43;;;;;;;;;;4981820;28;20453;-68
2022/01/24 03:57:26;;;;;;;15.43;7.67;;;;;;;;;;4962634;28;20457;-71
2022/01/24 03:59:53;;;;;;;17.80;8.13;;;;;;;;;;4975283;28;20869;-68
2022/01/24 04:02:20;;;;;;;13.80;7.40;;;;;;;;;;4975977;28;20467;-69
2022/01/24 04:04:47;;;;;;;13.50;7.30;;;;;;;;;;4978086;28;20455;-69
2022/01/24 04:07:14;;;;;;;13.80;7.10;;;;;;;;;;4973716;28;20950;-69
2022/01/24 04:09:42;;;;;;;13.57;7.37;;;;;;;;;;4974481;28;20591;-69
2022/01/24 04:12:09;;;;;;;12.17;6.47;;;;;;;;;;4962160;28;20451;-69
2022/01/24 04:22:09;;;;;;;13.73;6.50;;;;;;;;;;4963763;28;20473;-71
2022/01/24 04:24:36;;;;;;;10.23;5.63;;;;;;;;;;4952318;28;20468;-68
2022/01/24 04:27:03;;;;;;;9.83;5.07;;;;;;;;;;4973539;28;20472;-68
2022/01/24 04:29:29;;;;;;;10.10;4.87;;;;;;;;;;4963193;28;21080;-69
2022/01/24 04:31:56;;;;;;;7.40;3.67;;;;;;;;;;4949446;28;20456;-68
2022/01/24 04:34:23;;;;;;;7.73;4.67;;;;;;;;;;4965131;28;20468;-69
2022/01/24 04:36:49;;;;;;;10.00;5.43;;;;;;;;;;4957322;28;20472;-70
2022/01/24 04:39:16;;;;;;;8.97;4.93;;;;;;;;;;4957088;28;20474;-68
2022/01/24 04:41:46;;;;;;;10.33;5.67;;;;;;;;;;4961862;28;20461;-68
2022/01/24 04:52:34;;;;;;;10.03;6.10;;;;;;;;;;4974879;28;20481;-68
2022/01/24 04:55:00;;;;;;;12.27;6.97;;;;;;;;;;4963348;28;20874;-66
2022/01/24 04:57:27;;;;;;;9.80;5.43;;;;;;;;;;4953581;28;21160;-69
2022/01/24 04:59:55;;;;;;;12.03;6.30;;;;;;;;;;4965094;28;20483;-68
2022/01/24 05:02:22;;;;;;;13.03;6.57;;;;;;;;;;4961483;28;27259;-68
2022/01/24 05:04:49;;;;;;;12.20;5.80;;;;;;;;;;4961573;28;33067;-68
2022/01/24 05:07:15;;;;;;;12.13;6.93;;;;;;;;;;4957832;28;218958;-69
2022/01/24 05:10:03;;;;;;;11.43;5.70;;;;;;;;;;4967088;28;20836;-69
2022/01/24 05:23:33;;;;;;;13.47;6.77;;;;;;;;;;4956276;28;20471;-68
2022/01/24 05:26:01;;;;;;;12.77;6.07;;;;;;;;;;4963410;28;20470;-69
2022/01/24 05:28:27;;;;;;;13.70;6.83;;;;;;;;;;4970444;28;23296;-69
2022/01/24 05:30:58;;;;;;;12.63;6.93;;;;;;;;;;4961364;28;20548;-68
2022/01/24 05:33:25;;;;;;;12.37;7.63;;;;;;;;;;4964322;28;20850;-68
2022/01/24 05:35:52;;;;;;;13.17;7.57;;;;;;;;;;4965147;28;20486;-68
2022/01/24 05:38:21;;;;;;;12.73;6.33;;;;;;;;;;4962618;28;20668;-68
2022/01/24 05:40:48;;;;;;;12.17;6.40;;;;;;;;;;4953738;28;20464;-70
2022/01/24 05:43:15;;;;;;;14.07;7.17;;;;;;;;;;4953817;28;25921;-71
2022/01/24 05:45:41;;;;;;;14.80;8.40;;;;;;;;;;4971805;28;20560;-70
2022/01/24 05:48:08;;;;;;;11.47;5.57;;;;;;;;;;4962300;28;20460;-67
2022/01/24 05:50:35;;;;;;;15.23;6.77;;;;;;;;;;4942739;28;27567;-69
2022/01/24 05:53:01;;;;;;;18.10;9.03;;;;;;;;;;4966863;28;20489;-69
2022/01/24 05:55:28;;;;;;;15.13;7.10;;;;;;;;;;4953674;28;20487;-69
2022/01/24 05:57:55;;;;;;;20.37;9.80;;;;;;;;;;4975984;28;20460;-69
2022/01/24 06:00:21;;;;;;;20.30;9.37;;;;;;;;;;4976700;28;20594;-69
2022/01/24 06:02:48;;;;;;;18.53;8.77;;;;;;;;;;4969699;28;20473;-70
2022/01/24 06:05:15;;;;;;;20.40;10.20;;;;;;;;;;4964145;28;215369;-69
2022/01/24 06:07:41;;;;;;;21.00;10.57;;;;;;;;;;4972071;28;22956;-69
2022/01/24 06:10:08;;;;;;;24.23;11.37;;;;;;;;;;4973806;28;21005;-69
2022/01/24 06:12:35;;;;;;;19.80;10.63;;;;;;;;;;4971805;28;20463;-69
2022/01/24 06:15:01;;;;;;;17.87;8.93;;;;;;;;;;4977901;28;20586;-69
2022/01/24 06:17:28;;;;;;;16.53;8.63;;;;;;;;;;4979862;28;21008;-69
2022/01/24 06:19:55;;;;;;;15.07;8.60;;;;;;;;;;4950547;28;20888;-69
2022/01/24 06:22:22;;;;;;;17.40;9.00;;;;;;;;;;4981622;28;20465;-69
2022/01/24 06:24:48;;;;;;;18.33;9.33;;;;;;;;;;4979724;28;20969;-70
2022/01/24 06:27:35;;;;;;;18.97;10.37;;;;;;;;;;4971126;28;20471;-69
2022/01/24 06:30:01;;;;;;;18.83;9.57;;;;;;;;;;4969180;28;47976;-68
2022/01/24 06:32:28;;;;;;;21.70;9.30;;;;;;;;;;4977138;28;20475;-67
2022/01/24 06:34:56;;;;;;;22.37;10.03;;;;;;;;;;4976121;28;20522;-69
2022/01/24 06:37:23;;;;;;;21.00;9.27;;;;;;;;;;4957664;28;20219;-69
2022/01/24 06:39:49;;;;;;;17.70;9.03;;;;;;;;;;4968646;28;20286;-69
2022/01/24 06:42:22;;;;;;;15.70;9.37;;;;;;;;;;4968688;28;46975;-68
2022/01/24 06:44:50;;;;;;;17.87;9.67;;;;;;;;;;4957544;28;21474;-69
2022/01/24 06:47:17;;;;;;;18.20;10.17;;;;;;;;;;4976454;28;61899;-69
2022/01/24 06:49:44;;;;;;;12.90;6.60;;;;;;;;;;4978437;28;20843;-69
2022/01/24 06:52:13;;;;;;;15.60;9.87;;;;;;;;;;4975359;28;20555;-69
2022/01/24 06:54:41;;;;;;;19.73;10.93;;;;;;;;;;4973432;28;44918;-69
2022/01/24 06:57:09;;;;;;;19.13;10.47;;;;;;;;;;4957327;28;20460;-69
2022/01/24 06:59:36;;;;;;;21.30;10.23;;;;;;;;;;4975337;28;20488;-69
2022/01/24 07:02:03;;;;;;;21.23;10.93;;;;;;;;;;4973983;28;20538;-69
2022/01/24 07:04:30;;;;;;;21.50;11.40;;;;;;;;;;4958062;28;20466;-70
2022/01/24 07:06:57;;;;;;;26.33;13.20;;;;;;;;;;4966498;28;20471;-69
2022/01/24 07:09:24;;;;;;;23.80;12.40;;;;;;;;;;4963335;28;20463;-69
2022/01/24 07:11:53;;;;;;;9.10;5.20;;;;;;;;;;4956634;28;216896;-68
2022/01/24 07:14:20;;;;;;;27.57;13.83;;;;;;;;;;4966078;28;20521;-70
2022/01/24 07:19:31;;;;;;;24.50;13.40;;;;;;;;;;4973464;28;21019;-69
2022/01/24 07:21:58;;;;;;;26.03;14.83;;;;;;;;;;4973076;28;20212;-69
2022/01/24 07:24:25;;;;;;;24.03;13.43;;;;;;;;;;4973973;28;20847;-68
2022/01/24 07:26:52;;;;;;;25.27;12.93;;;;;;;;;;4951971;28;20952;-69
2022/01/24 07:29:18;;;;;;;29.47;14.30;;;;;;;;;;4955293;28;20463;-73
2022/01/24 07:31:46;;;;;;;25.70;14.00;;;;;;;;;;4949623;28;24158;-70
2022/01/24 07:34:13;;;;;;;28.27;13.83;;;;;;;;;;4964672;28;20464;-66
2022/01/24 07:36:40;;;;;;;19.10;10.30;;;;;;;;;;4960806;28;20478;-68
2022/01/24 07:39:07;;;;;;;28.90;13.83;;;;;;;;;;4968310;28;21658;-69
2022/01/24 07:41:41;;;;;;;30.23;15.30;;;;;;;;;;4957574;28;20584;-67
2022/01/24 07:44:15;;;;;;;33.30;16.77;;;;;;;;;;4962562;28;30773;-68
2022/01/24 07:46:42;;;;;;;29.97;15.03;;;;;;;;;;4970951;28;27953;-68
2022/01/24 07:49:11;;;;;;;21.50;10.97;;;;;;;;;;4975723;28;20829;-68
2022/01/24 07:51:38;;;;;;;30.37;13.33;;;;;;;;;;4957804;28;20468;-69
2022/01/24 07:54:04;;;;;;;28.27;12.70;;;;;;;;;;4942619;28;21446;-70
2022/01/24 07:56:31;;;;;;;26.33;12.93;;;;;;;;;;4956059;28;20474;-68
2022/01/24 07:58:58;;;;;;;21.00;11.23;;;;;;;;;;4971097;28;20462;-69
2022/01/24 08:01:26;;;;;;;27.50;12.37;;;;;;;;;;4967072;28;20501;-70
2022/01/24 08:03:53;;;;;;;16.87;8.27;;;;;;;;;;4947387;28;20462;-69
2022/01/24 08:06:21;;;;;;;23.73;11.23;;;;;;;;;;4970988;28;23885;-68
2022/01/24 08:08:48;;;;;;;21.17;9.77;;;;;;;;;;4954214;28;215217;-69
2022/01/24 08:11:18;;;;;;;24.47;10.87;;;;;;;;;;4963533;28;23626;-69
2022/01/24 10:16:55;;;;;;;8.97;4.63;;;;;;;;;;4960418;28;21664;-72
2022/01/24 10:19:24;;;;;;;15.23;8.33;;;;;;;;;;4944215;28;20472;-69
2022/01/24 10:22:00;;;;;;;11.87;6.43;;;;;;;;;;4957120;28;20462;-73
2022/01/24 10:24:42;;;;;;;14.13;8.17;;;;;;;;;;4959382;28;20470;-71
2022/01/24 10:27:09;;;;;;;13.97;8.37;;;;;;;;;;4956270;28;20470;-68
2022/01/24 10:30:04;;;;;;;16.40;8.93;;;;;;;;;;4935693;28;235646;-69
2022/01/24 10:32:40;;;;;;;13.87;8.10;;;;;;;;;;4940563;28;22171;-71
2022/01/24 10:35:22;;;;;;;12.23;7.30;;;;;;;;;;4941044;28;20490;-69
2022/01/24 10:38:15;;;;;;;12.63;7.50;;;;;;;;;;4925411;28;20463;-71
2022/01/24 10:41:07;;;;;;;12.87;7.63;;;;;;;;;;4946915;28;20467;-70
2022/01/24 10:43:34;;;;;;;15.43;7.13;;;;;;;;;;4943789;28;20444;-67
2022/01/24 10:46:00;;;;;;;13.23;7.43;;;;;;;;;;4960451;28;20843;-68
2022/01/24 10:48:28;;;;;;;13.97;6.50;;;;;;;;;;4944372;28;20467;-68
2022/01/24 10:51:06;;;;;;;13.37;7.57;;;;;;;;;;4959349;28;20231;-68
2022/01/24 10:53:39;;;;;;;11.87;6.37;;;;;;;;;;4944704;28;20458;-68
2022/01/24 10:56:25;;;;;;;18.10;9.57;;;;;;;;;;4944090;28;20452;-69
2022/01/24 10:58:52;;;;;;;14.40;7.77;;;;;;;;;;4934435;28;20798;-67
2022/01/24 11:01:25;;;;;;;16.20;9.63;;;;;;;;;;4956995;28;20246;-67
2022/01/24 11:03:58;;;;;;;18.23;10.37;;;;;;;;;;4944568;28;20820;-69
2022/01/24 11:06:30;;;;;;;21.20;9.13;;;;;;;;;;4954354;28;20464;-68
2022/01/24 11:09:19;;;;;;;12.63;7.03;;;;;;;;;;4941055;28;22341;-70
2022/01/24 11:11:46;;;;;;;16.13;8.53;;;;;;;;;;4945016;28;20471;-70
2022/01/24 11:14:16;;;;;;;16.53;9.03;;;;;;;;;;4959029;28;20231;-70
2022/01/24 11:16:43;;;;;;;16.27;8.67;;;;;;;;;;4956924;28;20463;-69
2022/01/24 11:19:19;;;;;;;16.27;8.50;;;;;;;;;;4959622;28;20462;-68
2022/01/24 11:21:46;;;;;;;17.63;9.77;;;;;;;;;;4966021;28;20499;-68
2022/01/24 11:24:18;;;;;;;16.10;9.53;;;;;;;;;;4960461;28;21001;-67
2022/01/24 11:26:45;;;;;;;16.27;10.03;;;;;;;;;;4969962;28;20479;-69
2022/01/24 11:29:16;;;;;;;14.33;7.93;;;;;;;;;;4947850;28;20319;-68
2022/01/24 11:31:50;;;;;;;16.67;10.53;;;;;;;;;;4946680;28;20472;-68
2022/01/24 11:34:39;;;;;;;15.57;9.40;;;;;;;;;;4954649;28;20723;-69
2022/01/24 11:37:06;;;;;;;12.47;7.90;;;;;;;;;;4937335;28;20463;-69
2022/01/24 11:39:34;;;;;;;15.40;7.97;;;;;;;;;;4963587;28;20483;-69
2022/01/24 11:42:02;;;;;;;11.67;7.00;;;;;;;;;;4942482;28;20457;-68
2022/01/24 11:44:48;;;;;;;9.70;6.20;;;;;;;;;;4951600;28;20744;-69
2022/01/24 11:47:20;;;;;;;11.23;6.20;;;;;;;;;;4963700;28;20730;-70
2022/01/24 11:49:47;;;;;;;10.97;6.50;;;;;;;;;;4964639;28;20534;-70
2022/01/24 11:52:15;;;;;;;10.53;6.70;;;;;;;;;;4975685;28;20514;-70
2022/01/24 11:54:48;;;;;;;9.73;6.83;;;;;;;;;;4977023;28;20460;-69
2022/01/24 11:57:14;;;;;;;11.97;7.03;;;;;;;;;;4977199;28;20242;-69
2022/01/24 11:59:41;;;;;;;9.97;6.63;;;;;;;;;;4979380;28;20447;-69
2022/01/24 12:02:09;;;;;;;10.97;6.67;;;;;;;;;;4978892;28;21002;-70
2022/01/24 12:04:52;;;;;;;10.30;6.53;;;;;;;;;;4970273;28;20451;-70
2022/01/24 12:07:21;;;;;;;12.23;6.80;;;;;;;;;;4972557;28;20599;-69
2022/01/24 12:09:49;;;;;;;11.37;7.10;;;;;;;;;;4972524;28;20455;-70
2022/01/24 12:12:35;;;;;;;9.57;5.53;;;;;;;;;;4975496;28;20961;-70
2022/01/24 12:15:03;;;;;;;12.57;6.53;;;;;;;;;;4971922;28;21033;-70
2022/01/24 12:17:47;;;;;;;9.70;6.77;;;;;;;;;;4972259;28;20459;-70
2022/01/24 12:20:33;;;;;;;11.67;6.83;;;;;;;;;;4969385;28;20233;-70
2022/01/24 12:23:21;;;;;;;9.03;4.33;;;;;;;;;;4962597;28;20938;-70
2022/01/24 12:26:08;;;;;;;10.97;6.20;;;;;;;;;;4951013;28;20255;-70
2022/01/24 12:28:44;;;;;;;10.77;5.47;;;;;;;;;;4971315;28;20228;-71
2022/01/24 12:31:16;;;;;;;11.70;6.17;;;;;;;;;;4975303;28;20455;-71
2022/01/24 12:33:44;;;;;;;10.03;5.47;;;;;;;;;;4969136;28;20463;-71
2022/01/24 12:36:14;;;;;;;10.63;6.17;;;;;;;;;;4974831;28;20454;-71
2022/01/24 12:38:44;;;;;;;10.07;5.80;;;;;;;;;;4977545;28;20542;-71
2022/01/24 12:41:38;;;;;;;10.03;5.73;;;;;;;;;;4972329;28;20471;-72
2022/01/24 12:46:32;;;;;;;9.00;5.73;;;;;;;;;;4974431;28;20228;-72
2022/01/24 12:48:59;;;;;;;8.67;5.83;;;;;;;;;;4970736;28;20454;-71
2022/01/24 12:51:28;;;;;;;9.17;5.97;;;;;;;;;;4973731;28;20478;-71
2022/01/24 12:53:54;;;;;;;9.43;5.33;;;;;;;;;;4972056;28;20234;-71
2022/01/24 12:56:26;;;;;;;8.27;5.47;;;;;;;;;;4967875;28;33723;-71
2022/01/24 12:58:53;;;;;;;10.07;6.77;;;;;;;;;;4969340;28;21158;-71
2022/01/24 13:01:21;;;;;;;12.97;7.73;;;;;;;;;;4971230;28;21043;-72
2022/01/24 13:03:52;;;;;;;9.00;5.47;;;;;;;;;;4975172;28;20223;-65
2022/01/24 13:06:21;;;;;;;11.20;6.50;;;;;;;;;;4975751;28;20469;-63
2022/01/24 13:08:54;;;;;;;11.73;6.70;;;;;;;;;;4970608;28;20470;-69
2022/01/24 13:11:21;;;;;;;10.47;6.13;;;;;;;;;;4974519;28;20459;-63
2022/01/24 13:13:58;;;;;;;13.77;7.10;;;;;;;;;;4966127;28;20474;-68
2022/01/24 13:22:20;;;;;;;15.37;8.00;;;;;;;;;;4974932;28;20476;-67
2022/01/24 13:25:05;;;;;;;16.17;8.20;;;;;;;;;;4957840;28;20452;-69
2022/01/24 13:27:39;;;;;;;11.53;6.50;;;;;;;;;;4956606;28;20535;-68
2022/01/24 13:30:07;;;;;;;9.73;5.73;;;;;;;;;;4953962;28;231104;-67
2022/01/24 13:33:03;;;;;;;8.23;4.73;;;;;;;;;;4966597;28;20234;-69
2022/01/24 13:35:33;;;;;;;14.00;7.27;;;;;;;;;;4952925;28;35711;-69
2022/01/24 13:38:00;;;;;;;10.70;6.67;;;;;;;;;;4945385;28;20314;-69
2022/01/24 13:40:31;;;;;;;12.50;7.17;;;;;;;;;;4965673;28;20718;-69
2022/01/24 13:42:58;;;;;;;13.53;7.47;;;;;;;;;;4954656;28;44014;-69
2022/01/24 13:45:24;;;;;;;15.57;9.33;;;;;;;;;;4958983;28;20890;-69
2022/01/24 13:47:55;;;;;;;12.53;7.60;;;;;;;;;;4963053;28;20463;-69
2022/01/24 13:50:21;;;;;;;15.70;7.83;;;;;;;;;;4961149;28;20459;-68
2022/01/24 13:52:48;;;;;;;15.13;8.83;;;;;;;;;;4960768;28;20231;-69
2022/01/24 13:55:15;;;;;;;19.30;9.20;;;;;;;;;;4955704;28;30277;-69
2022/01/24 13:57:43;;;;;;;19.00;6.53;;;;;;;;;;4955162;28;20302;-69
2022/01/24 14:00:11;;;;;;;15.73;8.33;;;;;;;;;;4946198;28;20455;-68
2022/01/24 14:02:38;;;;;;;14.87;8.53;;;;;;;;;;4953271;28;20954;-68
2022/01/24 14:05:05;;;;;;;14.70;8.97;;;;;;;;;;4963178;28;29120;-69
2022/01/24 14:07:33;;;;;;;13.13;8.43;;;;;;;;;;4962280;28;20598;-69
2022/01/24 14:10:02;;;;;;;11.80;7.63;;;;;;;;;;4938934;28;20460;-69
2022/01/24 14:12:40;;;;;;;13.87;6.97;;;;;;;;;;4939142;28;229682;-71
2022/01/24 14:15:42;;;;;;;15.40;8.47;;;;;;;;;;4964448;28;20228;-69
2022/01/24 14:20:45;;;;;;;10.63;6.27;;;;;;;;;;4959466;28;20715;-69
2022/01/24 14:23:35;;;;;;;12.83;6.17;;;;;;;;;;4955069;28;20663;-69
2022/01/24 14:26:14;;;;;;;14.90;8.47;;;;;;;;;;4948342;28;20456;-69
2022/01/24 14:28:43;;;;;;;15.67;8.57;;;;;;;;;;4992556;28;21291;-69
2022/01/24 14:31:11;;;;;;;18.40;10.73;;;;;;;;;;4993744;28;20483;-69
2022/01/24 14:33:43;;;;;;;16.60;9.13;;;;;;;;;;4998869;28;20559;-69
2022/01/24 14:36:15;;;;;;;17.83;9.53;;;;;;;;;;5000818;28;20590;-68
2022/01/24 14:38:42;;;;;;;14.17;9.00;;;;;;;;;;4993638;28;20451;-70
2022/01/24 14:41:26;;;;;;;12.37;8.23;;;;;;;;;;4994995;28;20458;-69
2022/01/24 14:46:41;;;;;;;15.23;9.47;;;;;;;;;;4978420;28;20310;-69
2022/01/24 14:49:11;;;;;;;16.27;9.57;;;;;;;;;;4976763;28;20448;-69
2022/01/24 14:51:40;;;;;;;14.70;9.93;;;;;;;;;;4969712;28;20491;-69
2022/01/24 14:54:08;;;;;;;17.33;10.17;;;;;;;;;;4977753;28;21554;-69
2022/01/24 14:56:35;;;;;;;16.53;10.30;;;;;;;;;;4961829;28;20459;-69
2022/01/24 14:59:02;;;;;;;18.37;10.30;;;;;;;;;;4972812;28;20470;-69
2022/01/24 15:01:29;;;;;;;15.63;10.37;;;;;;;;;;4977306;28;20459;-69
2022/01/24 15:03:56;;;;;;;16.97;9.97;;;;;;;;;;4975394;28;20292;-69
2022/01/24 15:06:23;;;;;;;16.27;9.90;;;;;;;;;;4962668;28;20451;-69
2022/01/24 15:08:51;;;;;;;14.03;8.90;;;;;;;;;;4979255;28;20466;-69
2022/01/24 15:11:21;;;;;;;14.63;8.73;;;;;;;;;;4971241;28;20598;-69
2022/01/24 15:13:53;;;;;;;14.93;9.90;;;;;;;;;;4972778;28;22422;-69
2022/01/24 15:16:28;;;;;;;12.67;7.97;;;;;;;;;;4963133;28;21248;-69
2022/01/24 15:26:52;;;;;;;9.10;6.27;;;;;;;;;;4975839;28;20232;-69
2022/01/24 15:29:19;;;;;;;10.33;5.93;;;;;;;;;;4976352;28;20471;-69
2022/01/24 15:31:45;;;;;;;12.23;5.47;;;;;;;;;;4975912;28;20566;-69
2022/01/24 15:34:18;;;;;;;8.50;4.60;;;;;;;;;;4974548;28;20465;-69
2022/01/24 15:36:46;;;;;;;8.80;4.73;;;;;;;;;;4977237;28;35738;-69
2022/01/24 15:39:12;;;;;;;8.47;4.40;;;;;;;;;;4975405;28;20462;-69
2022/01/24 15:44:46;;;;;;;7.87;4.10;;;;;;;;;;4941406;28;20474;-69
2022/01/24 15:49:40;;;;;;;9.77;4.10;;;;;;;;;;4974323;28;20537;-69
2022/01/24 15:52:07;;;;;;;8.63;4.60;;;;;;;;;;4979431;28;20458;-69
2022/01/24 15:54:33;;;;;;;6.77;3.07;;;;;;;;;;4975288;28;20472;-69
2022/01/24 15:59:46;;;;;;;5.07;2.53;;;;;;;;;;4972566;28;20455;-69
2022/01/24 16:02:13;;;;;;;6.90;2.90;;;;;;;;;;4967678;28;20727;-69
2022/01/24 16:04:40;;;;;;;4.87;2.60;;;;;;;;;;4956257;28;20228;-69
2022/01/24 16:07:06;;;;;;;5.87;2.90;;;;;;;;;;4972929;28;20555;-69
2022/01/24 16:09:33;;;;;;;3.87;2.47;;;;;;;;;;4957601;28;20467;-69
2022/01/24 16:12:00;;;;;;;4.80;2.90;;;;;;;;;;4973000;28;20507;-69
2022/01/24 16:14:27;;;;;;;5.70;3.70;;;;;;;;;;4977173;28;20483;-69
2022/01/24 16:16:53;;;;;;;7.50;3.43;;;;;;;;;;4977715;28;20494;-69
2022/01/24 16:19:22;;;;;;;7.87;3.10;;;;;;;;;;4971937;28;20471;-69
2022/01/24 16:27:41;;;;;;;6.30;3.37;;;;;;;;;;4974700;28;20463;-69
2022/01/24 16:30:08;;;;;;;6.40;3.37;;;;;;;;;;4963788;28;21005;-69
2022/01/24 16:32:35;;;;;;;7.30;3.73;;;;;;;;;;4974624;28;20470;-69
2022/01/24 16:35:05;;;;;;;5.97;3.33;;;;;;;;;;4971102;28;20477;-69
2022/01/24 16:37:35;;;;;;;5.63;4.03;;;;;;;;;;4977206;28;20896;-69
2022/01/24 16:40:08;;;;;;;6.00;3.70;;;;;;;;;;4953024;28;20827;-69
2022/01/24 16:42:42;;;;;;;5.30;3.40;;;;;;;;;;4971084;28;20458;-69
2022/01/24 16:48:03;;;;;;;7.80;4.37;;;;;;;;;;4947147;28;20459;-69
2022/01/24 16:50:29;;;;;;;10.73;5.37;;;;;;;;;;4972359;28;20471;-69
2022/01/24 16:52:56;;;;;;;9.17;5.30;;;;;;;;;;4972842;28;216614;-69
2022/01/24 16:55:26;;;;;;;8.33;3.70;;;;;;;;;;4977323;28;20467;-69
2022/01/24 16:57:53;;;;;;;9.63;5.13;;;;;;;;;;4969737;28;20958;-69
2022/01/24 17:00:21;;;;;;;9.13;4.80;;;;;;;;;;4976968;28;20497;-69
2022/01/24 17:02:52;;;;;;;9.73;5.27;;;;;;;;;;4973089;28;20462;-69
2022/01/24 17:05:28;;;;;;;9.90;5.07;;;;;;;;;;4957160;28;20807;-69
2022/01/24 17:07:55;;;;;;;9.10;5.00;;;;;;;;;;4960864;28;20530;-69
2022/01/24 17:10:21;;;;;;;9.13;4.43;;;;;;;;;;4973877;28;20463;-69
2022/01/24 17:13:00;;;;;;;10.23;4.83;;;;;;;;;;4973419;28;21098;-69
2022/01/24 17:15:27;;;;;;;9.73;5.27;;;;;;;;;;4973528;28;20456;-69
2022/01/24 17:17:57;;;;;;;9.97;5.80;;;;;;;;;;4959418;28;20459;-69
2022/01/24 17:20:24;;;;;;;11.33;5.77;;;;;;;;;;4977072;28;20470;-69
2022/01/24 17:22:51;;;;;;;11.87;5.90;;;;;;;;;;4973630;28;20293;-69
2022/01/24 17:25:17;;;;;;;12.43;6.33;;;;;;;;;;4975698;28;20493;-69
2022/01/24 17:27:44;;;;;;;11.80;5.33;;;;;;;;;;4973317;28;20463;-69
2022/01/24 17:30:12;;;;;;;8.67;5.13;;;;;;;;;;4977138;28;20466;-69
2022/01/24 17:32:48;;;;;;;10.80;4.80;;;;;;;;;;4972201;28;20456;-69
2022/01/24 17:35:15;;;;;;;10.07;5.30;;;;;;;;;;4975641;28;20476;-69
2022/01/24 17:37:41;;;;;;;8.60;4.87;;;;;;;;;;4972309;28;20463;-69
2022/01/24 17:40:11;;;;;;;8.50;4.60;;;;;;;;;;4977527;28;20466;-69
2022/01/24 17:42:40;;;;;;;7.00;4.10;;;;;;;;;;4953269;28;20316;-69
2022/01/24 17:45:07;;;;;;;7.27;4.10;;;;;;;;;;4965114;28;20451;-69
2022/01/24 17:47:34;;;;;;;7.97;4.20;;;;;;;;;;4953598;28;20228;-69
2022/01/24 17:50:00;;;;;;;5.87;3.17;;;;;;;;;;4971686;28;20463;-69
2022/01/24 17:52:27;;;;;;;12.57;4.80;;;;;;;;;;4972398;28;20466;-70
2022/01/24 17:54:54;;;;;;;6.93;3.87;;;;;;;;;;4977957;28;20469;-69
2022/01/24 17:57:22;;;;;;;10.80;4.47;;;;;;;;;;4982052;28;20502;-69
2022/01/24 18:19:37;;;;;;;10.50;6.03;;;;;;;;;;4972005;28;20462;-69
2022/01/24 18:22:07;;;;;;;9.47;5.00;;;;;;;;;;4973474;28;20470;-69
2022/01/24 18:24:35;;;;;;;9.20;5.27;;;;;;;;;;4973809;28;20470;-69
2022/01/24 18:27:07;;;;;;;10.43;5.33;;;;;;;;;;4955988;28;20489;-69
2022/01/24 18:29:47;;;;;;;11.10;5.50;;;;;;;;;;4974346;28;20592;-69
2022/01/24 18:32:17;;;;;;;9.00;4.23;;;;;;;;;;4976736;28;21150;-69
2022/01/24 18:34:53;;;;;;;11.57;5.67;;;;;;;;;;4973174;28;20943;-69
2022/01/24 18:37:22;;;;;;;11.23;5.53;;;;;;;;;;4959082;28;21005;-69
2022/01/24 18:39:52;;;;;;;10.20;5.50;;;;;;;;;;4966467;28;20583;-69
2022/01/24 18:42:26;;;;;;;8.60;4.90;;;;;;;;;;4974391;28;20460;-69
2022/01/24 18:44:56;;;;;;;10.53;5.73;;;;;;;;;;4958707;28;20459;-70
2022/01/24 18:47:31;;;;;;;9.83;5.30;;;;;;;;;;4948452;28;20463;-70
2022/01/24 18:49:57;;;;;;;18.07;10.20;;;;;;;;;;4970611;28;20462;-70
2022/01/24 18:52:27;;;;;;;6.77;4.03;;;;;;;;;;4973616;28;20467;-69
2022/01/24 18:54:53;;;;;;;10.43;5.50;;;;;;;;;;4954289;28;20237;-70
2022/01/24 18:57:20;;;;;;;26.10;16.93;;;;;;;;;;4973718;28;20961;-70
2022/01/24 18:59:47;;;;;;;9.63;5.23;;;;;;;;;;4978354;28;20314;-70
2022/01/24 19:02:17;;;;;;;11.10;6.00;;;;;;;;;;4973061;28;20468;-70
2022/01/24 19:04:45;;;;;;;11.43;6.77;;;;;;;;;;4963922;28;20220;-70
2022/01/24 19:07:14;;;;;;;10.30;5.30;;;;;;;;;;4969662;28;219651;-69
2022/01/24 19:09:40;;;;;;;10.27;5.87;;;;;;;;;;4970008;28;20482;-70
2022/01/24 19:12:08;;;;;;;8.13;5.23;;;;;;;;;;4978166;28;20830;-69
2022/01/24 19:14:35;;;;;;;9.97;5.33;;;;;;;;;;4976631;28;20458;-69
2022/01/24 19:17:06;;;;;;;9.00;4.80;;;;;;;;;;4973604;28;20459;-69
2022/01/24 19:19:46;;;;;;;7.43;4.57;;;;;;;;;;4968880;28;20459;-69
2022/01/24 19:24:58;;;;;;;8.40;4.83;;;;;;;;;;4962520;28;21226;-69
2022/01/24 19:27:26;;;;;;;8.37;5.27;;;;;;;;;;4959070;28;20539;-69
2022/01/24 19:29:55;;;;;;;10.20;6.17;;;;;;;;;;4959143;28;20472;-70
2022/01/24 19:32:24;;;;;;;9.17;5.27;;;;;;;;;;4948373;28;20459;-70
2022/01/24 19:34:51;;;;;;;9.17;5.33;;;;;;;;;;4963134;28;20804;-69
2022/01/24 19:37:18;;;;;;;9.77;6.20;;;;;;;;;;4975797;28;20226;-69
2022/01/24 19:39:44;;;;;;;13.13;7.23;;;;;;;;;;4968169;28;20489;-70
2022/01/24 19:42:11;;;;;;;7.67;3.97;;;;;;;;;;4966064;28;20426;-70
2022/01/24 19:44:39;;;;;;;11.63;6.63;;;;;;;;;;4951532;28;212449;-71
2022/01/24 19:47:06;;;;;;;11.53;7.23;;;;;;;;;;4969337;28;20976;-70
2022/01/24 19:49:34;;;;;;;11.47;6.90;;;;;;;;;;4961093;28;20263;-70